sensor_id;sensor_type;location;lat;lon;timestamp;P1;durP1;ratioP1;P2;durP2;ratioP2
819;SDS011;392;48.838;2.322;2022-09-24T00:01:09;7.53;;;6.87;;
819;SDS011;392;48.838;2.322;2022-09-24T00:03:38;7.10;;;6.40;;
819;SDS011;392;48.838;2.322;2022-09-24T00:06:06;7.30;;;6.77;;
819;SDS011;392;48.838;2.322;2022-09-24T00:08:35;7.03;;;5.93;;
819;SDS011;392;48.838;2.322;2022-09-24T00:11:05;6.90;;;6.33;;
819;SDS011;392;48.838;2.322;2022-09-24T00:13:36;7.33;;;6.73;;
819;SDS011;392;48.838;2.322;2022-09-24T00:16:06;7.50;;;6.90;;
819;SDS011;392;48.838;2.322;2022-09-24T00:18:35;7.60;;;7.00;;
819;SDS011;392;48.838;2.322;2022-09-24T00:21:11;7.20;;;6.60;;
819;SDS011;392;48.838;2.322;2022-09-24T00:23:40;7.20;;;6.70;;
819;SDS011;392;48.838;2.322;2022-09-24T00:26:09;6.77;;;6.27;;
819;SDS011;392;48.838;2.322;2022-09-24T00:28:55;6.80;;;6.20;;
819;SDS011;392;48.838;2.322;2022-09-24T00:31:22;7.27;;;6.67;;
819;SDS011;392;48.838;2.322;2022-09-24T00:33:50;8.23;;;7.53;;
819;SDS011;392;48.838;2.322;2022-09-24T00:36:20;7.50;;;6.90;;
819;SDS011;392;48.838;2.322;2022-09-24T00:38:48;6.90;;;6.30;;
819;SDS011;392;48.838;2.322;2022-09-24T00:41:17;6.97;;;6.47;;
819;SDS011;392;48.838;2.322;2022-09-24T00:43:48;6.90;;;6.40;;
819;SDS011;392;48.838;2.322;2022-09-24T00:46:16;7.47;;;6.80;;
819;SDS011;392;48.838;2.322;2022-09-24T00:48:47;7.13;;;6.60;;
819;SDS011;392;48.838;2.322;2022-09-24T00:51:19;6.70;;;6.20;;
819;SDS011;392;48.838;2.322;2022-09-24T00:53:51;7.10;;;6.53;;
819;SDS011;392;48.838;2.322;2022-09-24T00:56:22;7.37;;;6.77;;
819;SDS011;392;48.838;2.322;2022-09-24T00:58:50;7.30;;;6.70;;
819;SDS011;392;48.838;2.322;2022-09-24T01:01:21;7.80;;;7.20;;
819;SDS011;392;48.838;2.322;2022-09-24T01:03:50;7.00;;;6.50;;
819;SDS011;392;48.838;2.322;2022-09-24T01:06:22;7.10;;;6.50;;
819;SDS011;392;48.838;2.322;2022-09-24T01:08:49;7.50;;;6.80;;
819;SDS011;392;48.838;2.322;2022-09-24T01:11:30;7.40;;;6.80;;
819;SDS011;392;48.838;2.322;2022-09-24T01:17:12;7.87;;;7.07;;
819;SDS011;392;48.838;2.322;2022-09-24T01:20:02;8.03;;;7.30;;
819;SDS011;392;48.838;2.322;2022-09-24T01:23:14;7.87;;;7.17;;
819;SDS011;392;48.838;2.322;2022-09-24T01:26:07;7.53;;;7.00;;
819;SDS011;392;48.838;2.322;2022-09-24T01:28:53;7.27;;;6.67;;
819;SDS011;392;48.838;2.322;2022-09-24T01:31:46;8.17;;;7.57;;
819;SDS011;392;48.838;2.322;2022-09-24T01:34:19;7.83;;;7.23;;
819;SDS011;392;48.838;2.322;2022-09-24T01:36:57;7.37;;;6.77;;
819;SDS011;392;48.838;2.322;2022-09-24T01:39:27;7.50;;;6.80;;
819;SDS011;392;48.838;2.322;2022-09-24T01:41:56;8.03;;;7.33;;
819;SDS011;392;48.838;2.322;2022-09-24T01:44:26;7.60;;;7.00;;
819;SDS011;392;48.838;2.322;2022-09-24T01:46:53;7.70;;;7.10;;
819;SDS011;392;48.838;2.322;2022-09-24T01:49:21;9.30;;;7.80;;
819;SDS011;392;48.838;2.322;2022-09-24T01:51:49;8.30;;;7.60;;
819;SDS011;392;48.838;2.322;2022-09-24T01:54:21;8.87;;;8.07;;
819;SDS011;392;48.838;2.322;2022-09-24T01:56:55;7.73;;;7.07;;
819;SDS011;392;48.838;2.322;2022-09-24T01:59:31;8.27;;;7.57;;
819;SDS011;392;48.838;2.322;2022-09-24T02:02:06;8.47;;;7.77;;
819;SDS011;392;48.838;2.322;2022-09-24T02:04:40;8.47;;;7.60;;
819;SDS011;392;48.838;2.322;2022-09-24T02:07:12;9.30;;;8.50;;
819;SDS011;392;48.838;2.322;2022-09-24T02:09:46;8.77;;;7.97;;
819;SDS011;392;48.838;2.322;2022-09-24T02:12:15;8.60;;;7.90;;
819;SDS011;392;48.838;2.322;2022-09-24T02:14:55;9.53;;;8.20;;
819;SDS011;392;48.838;2.322;2022-09-24T02:17:28;9.87;;;8.87;;
819;SDS011;392;48.838;2.322;2022-09-24T02:20:02;9.33;;;8.43;;
819;SDS011;392;48.838;2.322;2022-09-24T02:22:36;8.07;;;7.27;;
819;SDS011;392;48.838;2.322;2022-09-24T02:25:05;9.40;;;8.60;;
819;SDS011;392;48.838;2.322;2022-09-24T02:27:39;10.47;;;9.40;;
819;SDS011;392;48.838;2.322;2022-09-24T02:30:09;9.37;;;8.53;;
819;SDS011;392;48.838;2.322;2022-09-24T02:32:38;9.37;;;8.37;;
819;SDS011;392;48.838;2.322;2022-09-24T02:35:08;9.37;;;8.37;;
819;SDS011;392;48.838;2.322;2022-09-24T02:37:36;9.40;;;8.50;;
819;SDS011;392;48.838;2.322;2022-09-24T02:40:06;10.50;;;7.23;;
819;SDS011;392;48.838;2.322;2022-09-24T02:42:38;9.07;;;8.17;;
819;SDS011;392;48.838;2.322;2022-09-24T02:45:07;8.43;;;7.73;;
819;SDS011;392;48.838;2.322;2022-09-24T02:47:37;9.07;;;8.17;;
819;SDS011;392;48.838;2.322;2022-09-24T02:50:05;9.37;;;8.50;;
819;SDS011;392;48.838;2.322;2022-09-24T02:52:33;9.00;;;8.07;;
819;SDS011;392;48.838;2.322;2022-09-24T02:55:00;8.53;;;7.77;;
819;SDS011;392;48.838;2.322;2022-09-24T02:57:27;8.43;;;7.50;;
819;SDS011;392;48.838;2.322;2022-09-24T02:59:55;8.27;;;7.57;;
819;SDS011;392;48.838;2.322;2022-09-24T03:02:23;8.77;;;7.90;;
819;SDS011;392;48.838;2.322;2022-09-24T03:04:50;8.50;;;7.63;;
819;SDS011;392;48.838;2.322;2022-09-24T03:07:18;8.93;;;8.13;;
819;SDS011;392;48.838;2.322;2022-09-24T03:09:47;8.50;;;7.80;;
819;SDS011;392;48.838;2.322;2022-09-24T03:12:14;8.40;;;7.60;;
819;SDS011;392;48.838;2.322;2022-09-24T03:14:41;8.20;;;7.60;;
819;SDS011;392;48.838;2.322;2022-09-24T03:17:08;9.57;;;8.67;;
819;SDS011;392;48.838;2.322;2022-09-24T03:19:37;8.57;;;7.80;;
819;SDS011;392;48.838;2.322;2022-09-24T03:22:04;9.00;;;8.10;;
819;SDS011;392;48.838;2.322;2022-09-24T03:24:31;7.23;;;6.63;;
819;SDS011;392;48.838;2.322;2022-09-24T03:26:59;7.57;;;7.00;;
819;SDS011;392;48.838;2.322;2022-09-24T03:29:26;7.10;;;6.50;;
819;SDS011;392;48.838;2.322;2022-09-24T03:32:07;7.13;;;6.50;;
819;SDS011;392;48.838;2.322;2022-09-24T03:34:34;7.33;;;6.63;;
819;SDS011;392;48.838;2.322;2022-09-24T03:37:03;8.00;;;7.30;;
819;SDS011;392;48.838;2.322;2022-09-24T03:39:30;7.30;;;6.70;;
819;SDS011;392;48.838;2.322;2022-09-24T03:41:58;7.60;;;7.00;;
819;SDS011;392;48.838;2.322;2022-09-24T03:44:25;7.13;;;6.40;;
819;SDS011;392;48.838;2.322;2022-09-24T03:46:52;7.20;;;6.53;;
819;SDS011;392;48.838;2.322;2022-09-24T03:49:21;7.50;;;6.80;;
819;SDS011;392;48.838;2.322;2022-09-24T03:51:50;7.00;;;6.27;;
819;SDS011;392;48.838;2.322;2022-09-24T03:54:17;7.83;;;7.13;;
819;SDS011;392;48.838;2.322;2022-09-24T03:56:45;7.20;;;6.50;;
819;SDS011;392;48.838;2.322;2022-09-24T03:59:12;7.40;;;6.70;;
819;SDS011;392;48.838;2.322;2022-09-24T04:01:39;7.17;;;6.53;;
819;SDS011;392;48.838;2.322;2022-09-24T04:04:07;6.80;;;6.23;;
819;SDS011;392;48.838;2.322;2022-09-24T04:06:34;6.20;;;5.60;;
819;SDS011;392;48.838;2.322;2022-09-24T04:09:03;7.20;;;6.60;;
819;SDS011;392;48.838;2.322;2022-09-24T04:11:30;8.23;;;7.60;;
819;SDS011;392;48.838;2.322;2022-09-24T04:13:59;7.77;;;7.10;;
819;SDS011;392;48.838;2.322;2022-09-24T04:16:27;7.90;;;7.20;;
819;SDS011;392;48.838;2.322;2022-09-24T04:18:54;7.87;;;7.07;;
819;SDS011;392;48.838;2.322;2022-09-24T04:21:21;8.13;;;7.43;;
819;SDS011;392;48.838;2.322;2022-09-24T04:23:48;7.83;;;7.20;;
819;SDS011;392;48.838;2.322;2022-09-24T04:26:17;6.60;;;6.00;;
819;SDS011;392;48.838;2.322;2022-09-24T04:28:45;7.47;;;6.87;;
819;SDS011;392;48.838;2.322;2022-09-24T04:31:14;8.50;;;6.80;;
819;SDS011;392;48.838;2.322;2022-09-24T04:33:42;7.93;;;7.23;;
819;SDS011;392;48.838;2.322;2022-09-24T04:36:09;7.47;;;6.87;;
819;SDS011;392;48.838;2.322;2022-09-24T04:38:36;8.33;;;7.57;;
819;SDS011;392;48.838;2.322;2022-09-24T04:41:04;8.60;;;7.80;;
819;SDS011;392;48.838;2.322;2022-09-24T04:43:34;8.00;;;7.23;;
819;SDS011;392;48.838;2.322;2022-09-24T04:46:02;7.60;;;6.90;;
819;SDS011;392;48.838;2.322;2022-09-24T04:48:30;8.03;;;7.23;;
819;SDS011;392;48.838;2.322;2022-09-24T04:50:57;8.57;;;7.67;;
819;SDS011;392;48.838;2.322;2022-09-24T04:53:26;8.30;;;7.60;;
819;SDS011;392;48.838;2.322;2022-09-24T04:55:53;8.17;;;7.37;;
819;SDS011;392;48.838;2.322;2022-09-24T04:58:20;7.97;;;7.27;;
819;SDS011;392;48.838;2.322;2022-09-24T05:00:49;8.77;;;7.97;;
819;SDS011;392;48.838;2.322;2022-09-24T05:03:17;8.13;;;7.40;;
819;SDS011;392;48.838;2.322;2022-09-24T05:05:45;7.90;;;7.23;;
819;SDS011;392;48.838;2.322;2022-09-24T05:08:14;8.87;;;8.07;;
819;SDS011;392;48.838;2.322;2022-09-24T05:10:41;8.80;;;8.00;;
819;SDS011;392;48.838;2.322;2022-09-24T05:13:09;8.77;;;7.70;;
819;SDS011;392;48.838;2.322;2022-09-24T05:15:36;8.50;;;7.70;;
819;SDS011;392;48.838;2.322;2022-09-24T05:18:05;8.03;;;7.33;;
819;SDS011;392;48.838;2.322;2022-09-24T05:20:32;7.90;;;7.20;;
819;SDS011;392;48.838;2.322;2022-09-24T05:22:59;7.77;;;7.07;;
819;SDS011;392;48.838;2.322;2022-09-24T05:25:26;7.43;;;6.80;;
819;SDS011;392;48.838;2.322;2022-09-24T05:27:54;8.53;;;7.70;;
819;SDS011;392;48.838;2.322;2022-09-24T05:30:21;7.37;;;6.70;;
819;SDS011;392;48.838;2.322;2022-09-24T05:32:50;8.60;;;7.80;;
819;SDS011;392;48.838;2.322;2022-09-24T05:35:19;7.77;;;7.03;;
819;SDS011;392;48.838;2.322;2022-09-24T05:37:48;8.50;;;7.63;;
819;SDS011;392;48.838;2.322;2022-09-24T05:40:17;7.50;;;6.80;;
819;SDS011;392;48.838;2.322;2022-09-24T05:43:10;7.63;;;6.83;;
819;SDS011;392;48.838;2.322;2022-09-24T05:45:37;7.27;;;6.57;;
819;SDS011;392;48.838;2.322;2022-09-24T05:48:06;7.90;;;7.17;;
819;SDS011;392;48.838;2.322;2022-09-24T05:50:35;8.30;;;6.67;;
819;SDS011;392;48.838;2.322;2022-09-24T05:53:02;7.33;;;6.67;;
819;SDS011;392;48.838;2.322;2022-09-24T05:55:30;7.40;;;6.70;;
819;SDS011;392;48.838;2.322;2022-09-24T05:58:02;8.23;;;7.20;;
819;SDS011;392;48.838;2.322;2022-09-24T06:00:30;7.87;;;7.17;;
819;SDS011;392;48.838;2.322;2022-09-24T06:03:00;7.73;;;7.03;;
819;SDS011;392;48.838;2.322;2022-09-24T06:05:30;8.30;;;7.50;;
819;SDS011;392;48.838;2.322;2022-09-24T06:08:01;7.87;;;7.17;;
819;SDS011;392;48.838;2.322;2022-09-24T06:10:29;8.67;;;7.87;;
819;SDS011;392;48.838;2.322;2022-09-24T06:12:56;7.80;;;7.10;;
819;SDS011;392;48.838;2.322;2022-09-24T06:15:23;8.20;;;7.50;;
819;SDS011;392;48.838;2.322;2022-09-24T06:17:52;8.37;;;7.63;;
819;SDS011;392;48.838;2.322;2022-09-24T06:20:20;7.50;;;6.77;;
819;SDS011;392;48.838;2.322;2022-09-24T06:22:47;7.40;;;6.80;;
819;SDS011;392;48.838;2.322;2022-09-24T06:25:16;7.97;;;7.23;;
819;SDS011;392;48.838;2.322;2022-09-24T06:27:43;7.60;;;6.90;;
819;SDS011;392;48.838;2.322;2022-09-24T06:30:11;7.83;;;7.13;;
819;SDS011;392;48.838;2.322;2022-09-24T06:32:38;7.43;;;6.73;;
819;SDS011;392;48.838;2.322;2022-09-24T06:35:06;6.87;;;6.27;;
819;SDS011;392;48.838;2.322;2022-09-24T06:37:34;9.23;;;8.33;;
819;SDS011;392;48.838;2.322;2022-09-24T06:40:01;7.63;;;6.93;;
819;SDS011;392;48.838;2.322;2022-09-24T06:42:30;7.10;;;6.40;;
819;SDS011;392;48.838;2.322;2022-09-24T06:44:57;6.87;;;6.17;;
819;SDS011;392;48.838;2.322;2022-09-24T06:47:25;6.63;;;5.80;;
819;SDS011;392;48.838;2.322;2022-09-24T06:49:53;6.27;;;5.67;;
819;SDS011;392;48.838;2.322;2022-09-24T06:52:20;7.17;;;6.37;;
819;SDS011;392;48.838;2.322;2022-09-24T06:54:48;7.37;;;5.97;;
819;SDS011;392;48.838;2.322;2022-09-24T06:57:15;7.80;;;6.70;;
819;SDS011;392;48.838;2.322;2022-09-24T06:59:44;7.60;;;6.90;;
819;SDS011;392;48.838;2.322;2022-09-24T07:02:12;6.90;;;6.20;;
819;SDS011;392;48.838;2.322;2022-09-24T07:04:39;6.57;;;5.97;;
819;SDS011;392;48.838;2.322;2022-09-24T07:07:06;7.43;;;6.70;;
819;SDS011;392;48.838;2.322;2022-09-24T07:09:51;6.97;;;6.33;;
819;SDS011;392;48.838;2.322;2022-09-24T07:12:18;6.73;;;6.13;;
819;SDS011;392;48.838;2.322;2022-09-24T07:14:47;7.43;;;6.60;;
819;SDS011;392;48.838;2.322;2022-09-24T07:17:15;6.57;;;5.97;;
819;SDS011;392;48.838;2.322;2022-09-24T07:19:42;6.97;;;6.27;;
819;SDS011;392;48.838;2.322;2022-09-24T07:22:09;7.00;;;6.37;;
819;SDS011;392;48.838;2.322;2022-09-24T07:24:37;7.43;;;6.73;;
819;SDS011;392;48.838;2.322;2022-09-24T07:27:04;8.37;;;6.80;;
819;SDS011;392;48.838;2.322;2022-09-24T07:29:31;7.77;;;6.97;;
819;SDS011;392;48.838;2.322;2022-09-24T07:32:01;7.80;;;7.00;;
819;SDS011;392;48.838;2.322;2022-09-24T07:34:30;8.77;;;7.97;;
819;SDS011;392;48.838;2.322;2022-09-24T07:36:57;8.30;;;7.47;;
819;SDS011;392;48.838;2.322;2022-09-24T07:39:25;8.27;;;7.33;;
819;SDS011;392;48.838;2.322;2022-09-24T07:41:52;7.53;;;6.83;;
819;SDS011;392;48.838;2.322;2022-09-24T07:44:20;7.23;;;6.53;;
819;SDS011;392;48.838;2.322;2022-09-24T07:46:48;8.13;;;7.33;;
819;SDS011;392;48.838;2.322;2022-09-24T07:49:17;7.73;;;7.03;;
819;SDS011;392;48.838;2.322;2022-09-24T07:51:44;9.00;;;8.30;;
819;SDS011;392;48.838;2.322;2022-09-24T07:54:11;6.90;;;6.20;;
819;SDS011;392;48.838;2.322;2022-09-24T07:56:39;6.17;;;5.67;;
819;SDS011;392;48.838;2.322;2022-09-24T07:59:06;6.37;;;5.77;;
819;SDS011;392;48.838;2.322;2022-09-24T08:01:35;6.33;;;5.73;;
819;SDS011;392;48.838;2.322;2022-09-24T08:04:05;6.70;;;6.00;;
819;SDS011;392;48.838;2.322;2022-09-24T08:06:34;7.13;;;6.43;;
819;SDS011;392;48.838;2.322;2022-09-24T08:09:02;6.90;;;6.20;;
819;SDS011;392;48.838;2.322;2022-09-24T08:11:30;7.80;;;7.10;;
819;SDS011;392;48.838;2.322;2022-09-24T08:13:57;8.80;;;7.00;;
819;SDS011;392;48.838;2.322;2022-09-24T08:16:25;7.50;;;6.80;;
819;SDS011;392;48.838;2.322;2022-09-24T08:18:53;7.33;;;6.60;;
819;SDS011;392;48.838;2.322;2022-09-24T08:21:20;7.00;;;6.40;;
819;SDS011;392;48.838;2.322;2022-09-24T08:23:49;7.37;;;6.57;;
819;SDS011;392;48.838;2.322;2022-09-24T08:26:16;7.70;;;7.10;;
819;SDS011;392;48.838;2.322;2022-09-24T08:28:43;7.20;;;6.50;;
819;SDS011;392;48.838;2.322;2022-09-24T08:31:11;7.67;;;6.53;;
819;SDS011;392;48.838;2.322;2022-09-24T08:33:38;7.97;;;7.17;;
819;SDS011;392;48.838;2.322;2022-09-24T08:36:08;7.33;;;6.73;;
819;SDS011;392;48.838;2.322;2022-09-24T08:38:36;7.80;;;7.10;;
819;SDS011;392;48.838;2.322;2022-09-24T08:41:06;7.80;;;7.10;;
819;SDS011;392;48.838;2.322;2022-09-24T08:43:52;7.40;;;6.70;;
819;SDS011;392;48.838;2.322;2022-09-24T08:46:28;7.80;;;7.10;;
819;SDS011;392;48.838;2.322;2022-09-24T08:49:18;7.93;;;7.23;;
819;SDS011;392;48.838;2.322;2022-09-24T08:51:50;7.80;;;7.03;;
819;SDS011;392;48.838;2.322;2022-09-24T08:54:26;8.20;;;7.40;;
819;SDS011;392;48.838;2.322;2022-09-24T08:56:57;8.70;;;7.90;;
819;SDS011;392;48.838;2.322;2022-09-24T08:59:29;7.23;;;6.60;;
819;SDS011;392;48.838;2.322;2022-09-24T09:02:09;7.37;;;6.77;;
819;SDS011;392;48.838;2.322;2022-09-24T09:04:52;8.20;;;7.30;;
819;SDS011;392;48.838;2.322;2022-09-24T09:07:26;8.67;;;7.37;;
819;SDS011;392;48.838;2.322;2022-09-24T09:09:58;7.90;;;7.13;;
819;SDS011;392;48.838;2.322;2022-09-24T09:12:33;8.93;;;8.03;;
819;SDS011;392;48.838;2.322;2022-09-24T09:15:03;6.57;;;6.03;;
819;SDS011;392;48.838;2.322;2022-09-24T09:17:39;6.37;;;5.77;;
819;SDS011;392;48.838;2.322;2022-09-24T09:20:14;8.67;;;7.87;;
819;SDS011;392;48.838;2.322;2022-09-24T09:22:46;8.00;;;7.20;;
819;SDS011;392;48.838;2.322;2022-09-24T09:25:19;8.03;;;7.30;;
819;SDS011;392;48.838;2.322;2022-09-24T09:27:52;8.20;;;7.13;;
819;SDS011;392;48.838;2.322;2022-09-24T09:30:26;8.47;;;7.50;;
819;SDS011;392;48.838;2.322;2022-09-24T09:33:11;8.87;;;8.00;;
819;SDS011;392;48.838;2.322;2022-09-24T09:35:58;9.13;;;8.40;;
819;SDS011;392;48.838;2.322;2022-09-24T09:38:43;8.70;;;7.90;;
819;SDS011;392;48.838;2.322;2022-09-24T09:41:22;8.67;;;7.87;;
819;SDS011;392;48.838;2.322;2022-09-24T09:44:01;9.10;;;8.30;;
819;SDS011;392;48.838;2.322;2022-09-24T09:46:40;8.37;;;7.57;;
819;SDS011;392;48.838;2.322;2022-09-24T09:49:12;8.33;;;7.53;;
819;SDS011;392;48.838;2.322;2022-09-24T09:51:40;8.63;;;7.83;;
819;SDS011;392;48.838;2.322;2022-09-24T09:54:11;8.10;;;7.50;;
819;SDS011;392;48.838;2.322;2022-09-24T09:56:41;8.97;;;8.13;;
819;SDS011;392;48.838;2.322;2022-09-24T09:59:17;8.30;;;7.50;;
819;SDS011;392;48.838;2.322;2022-09-24T10:01:47;8.33;;;7.63;;
819;SDS011;392;48.838;2.322;2022-09-24T10:04:26;9.40;;;8.50;;
819;SDS011;392;48.838;2.322;2022-09-24T10:07:07;9.60;;;8.70;;
819;SDS011;392;48.838;2.322;2022-09-24T10:09:37;9.70;;;8.77;;
819;SDS011;392;48.838;2.322;2022-09-24T10:12:07;8.47;;;7.77;;
819;SDS011;392;48.838;2.322;2022-09-24T10:14:42;9.93;;;9.00;;
819;SDS011;392;48.838;2.322;2022-09-24T10:17:11;9.43;;;8.53;;
819;SDS011;392;48.838;2.322;2022-09-24T10:19:43;9.13;;;8.20;;
819;SDS011;392;48.838;2.322;2022-09-24T10:22:14;9.30;;;8.40;;
819;SDS011;392;48.838;2.322;2022-09-24T10:24:45;10.43;;;9.17;;
819;SDS011;392;48.838;2.322;2022-09-24T10:27:17;10.70;;;9.60;;
819;SDS011;392;48.838;2.322;2022-09-24T10:29:53;9.97;;;9.03;;
819;SDS011;392;48.838;2.322;2022-09-24T10:32:39;10.80;;;9.70;;
819;SDS011;392;48.838;2.322;2022-09-24T10:35:18;10.70;;;9.70;;
819;SDS011;392;48.838;2.322;2022-09-24T10:37:52;9.90;;;9.00;;
819;SDS011;392;48.838;2.322;2022-09-24T10:40:21;11.20;;;9.70;;
819;SDS011;392;48.838;2.322;2022-09-24T10:42:56;12.00;;;10.90;;
819;SDS011;392;48.838;2.322;2022-09-24T10:45:39;10.67;;;9.67;;
819;SDS011;392;48.838;2.322;2022-09-24T10:48:33;14.43;;;13.10;;
819;SDS011;392;48.838;2.322;2022-09-24T10:51:11;12.07;;;10.77;;
819;SDS011;392;48.838;2.322;2022-09-24T10:53:54;18.57;;;16.37;;
819;SDS011;392;48.838;2.322;2022-09-24T10:56:40;11.20;;;10.10;;
819;SDS011;392;48.838;2.322;2022-09-24T10:59:17;13.60;;;9.90;;
819;SDS011;392;48.838;2.322;2022-09-24T11:02:22;12.47;;;11.23;;
819;SDS011;392;48.838;2.322;2022-09-24T11:05:07;11.93;;;10.90;;
819;SDS011;392;48.838;2.322;2022-09-24T11:07:43;11.23;;;10.33;;
819;SDS011;392;48.838;2.322;2022-09-24T11:10:29;12.80;;;11.70;;
819;SDS011;392;48.838;2.322;2022-09-24T11:13:18;11.70;;;10.70;;
819;SDS011;392;48.838;2.322;2022-09-24T11:15:58;13.07;;;11.90;;
819;SDS011;392;48.838;2.322;2022-09-24T11:18:49;13.57;;;12.37;;
819;SDS011;392;48.838;2.322;2022-09-24T11:21:28;13.17;;;11.97;;
819;SDS011;392;48.838;2.322;2022-09-24T11:24:18;13.20;;;11.90;;
819;SDS011;392;48.838;2.322;2022-09-24T11:27:05;12.73;;;11.63;;
819;SDS011;392;48.838;2.322;2022-09-24T11:29:59;12.47;;;11.47;;
819;SDS011;392;48.838;2.322;2022-09-24T11:32:36;12.47;;;11.27;;
819;SDS011;392;48.838;2.322;2022-09-24T11:35:28;11.73;;;10.80;;
819;SDS011;392;48.838;2.322;2022-09-24T11:38:14;13.00;;;11.77;;
819;SDS011;392;48.838;2.322;2022-09-24T11:40:53;12.57;;;11.47;;
819;SDS011;392;48.838;2.322;2022-09-24T11:43:38;13.13;;;12.03;;
819;SDS011;392;48.838;2.322;2022-09-24T11:46:32;13.53;;;12.33;;
819;SDS011;392;48.838;2.322;2022-09-24T11:49:28;12.50;;;11.50;;
819;SDS011;392;48.838;2.322;2022-09-24T11:52:23;12.77;;;11.67;;
819;SDS011;392;48.838;2.322;2022-09-24T11:54:58;11.83;;;10.83;;
819;SDS011;392;48.838;2.322;2022-09-24T11:57:32;12.20;;;11.20;;
819;SDS011;392;48.838;2.322;2022-09-24T12:00:05;12.07;;;11.00;;
819;SDS011;392;48.838;2.322;2022-09-24T12:02:42;11.33;;;10.33;;
819;SDS011;392;48.838;2.322;2022-09-24T12:05:16;13.00;;;11.90;;
819;SDS011;392;48.838;2.322;2022-09-24T12:07:54;12.60;;;11.40;;
819;SDS011;392;48.838;2.322;2022-09-24T12:10:28;13.07;;;11.97;;
819;SDS011;392;48.838;2.322;2022-09-24T12:13:03;12.53;;;11.43;;
819;SDS011;392;48.838;2.322;2022-09-24T12:15:41;11.50;;;10.50;;
819;SDS011;392;48.838;2.322;2022-09-24T12:18:17;11.53;;;10.53;;
819;SDS011;392;48.838;2.322;2022-09-24T12:20:49;12.30;;;11.30;;
819;SDS011;392;48.838;2.322;2022-09-24T12:23:23;13.70;;;12.60;;
819;SDS011;392;48.838;2.322;2022-09-24T12:25:54;13.50;;;12.43;;
819;SDS011;392;48.838;2.322;2022-09-24T12:28:24;12.43;;;11.43;;
819;SDS011;392;48.838;2.322;2022-09-24T12:31:18;11.10;;;10.30;;
819;SDS011;392;48.838;2.322;2022-09-24T12:34:12;12.47;;;11.53;;
819;SDS011;392;48.838;2.322;2022-09-24T12:36:50;12.27;;;11.27;;
819;SDS011;392;48.838;2.322;2022-09-24T12:39:27;12.43;;;11.53;;
819;SDS011;392;48.838;2.322;2022-09-24T12:41:59;22.97;;;21.03;;
819;SDS011;392;48.838;2.322;2022-09-24T12:44:31;13.17;;;12.17;;
819;SDS011;392;48.838;2.322;2022-09-24T12:47:12;13.27;;;12.17;;
819;SDS011;392;48.838;2.322;2022-09-24T12:49:47;11.20;;;10.30;;
819;SDS011;392;48.838;2.322;2022-09-24T12:52:22;12.83;;;11.60;;
819;SDS011;392;48.838;2.322;2022-09-24T12:54:54;12.10;;;11.20;;
819;SDS011;392;48.838;2.322;2022-09-24T12:57:28;11.03;;;9.97;;
819;SDS011;392;48.838;2.322;2022-09-24T13:00:02;11.13;;;10.20;;
819;SDS011;392;48.838;2.322;2022-09-24T13:02:51;11.00;;;10.07;;
819;SDS011;392;48.838;2.322;2022-09-24T13:05:25;13.47;;;12.20;;
819;SDS011;392;48.838;2.322;2022-09-24T13:07:55;13.50;;;12.20;;
819;SDS011;392;48.838;2.322;2022-09-24T13:10:27;12.60;;;11.60;;
819;SDS011;392;48.838;2.322;2022-09-24T13:12:56;13.80;;;12.40;;
819;SDS011;392;48.838;2.322;2022-09-24T13:15:28;12.20;;;10.97;;
819;SDS011;392;48.838;2.322;2022-09-24T13:17:59;11.87;;;10.83;;
819;SDS011;392;48.838;2.322;2022-09-24T13:21:01;11.57;;;10.60;;
819;SDS011;392;48.838;2.322;2022-09-24T13:23:41;10.53;;;9.63;;
819;SDS011;392;48.838;2.322;2022-09-24T13:26:13;11.37;;;10.47;;
819;SDS011;392;48.838;2.322;2022-09-24T13:28:58;11.03;;;10.13;;
819;SDS011;392;48.838;2.322;2022-09-24T13:31:38;11.10;;;10.10;;
819;SDS011;392;48.838;2.322;2022-09-24T13:34:13;11.20;;;10.30;;
819;SDS011;392;48.838;2.322;2022-09-24T13:36:47;12.00;;;11.10;;
819;SDS011;392;48.838;2.322;2022-09-24T13:39:23;12.30;;;11.20;;
819;SDS011;392;48.838;2.322;2022-09-24T13:42:00;10.67;;;9.77;;
819;SDS011;392;48.838;2.322;2022-09-24T13:44:34;10.63;;;9.73;;
819;SDS011;392;48.838;2.322;2022-09-24T13:47:09;11.30;;;10.30;;
819;SDS011;392;48.838;2.322;2022-09-24T13:49:43;10.37;;;9.57;;
819;SDS011;392;48.838;2.322;2022-09-24T13:52:14;11.50;;;10.60;;
819;SDS011;392;48.838;2.322;2022-09-24T13:54:54;11.40;;;10.40;;
819;SDS011;392;48.838;2.322;2022-09-24T13:57:27;10.87;;;9.83;;
819;SDS011;392;48.838;2.322;2022-09-24T14:00:02;11.27;;;10.30;;
819;SDS011;392;48.838;2.322;2022-09-24T14:02:39;10.60;;;9.80;;
819;SDS011;392;48.838;2.322;2022-09-24T14:05:13;11.40;;;10.40;;
819;SDS011;392;48.838;2.322;2022-09-24T14:07:50;11.57;;;10.63;;
819;SDS011;392;48.838;2.322;2022-09-24T14:10:25;14.63;;;13.37;;
819;SDS011;392;48.838;2.322;2022-09-24T14:13:01;12.67;;;11.67;;
819;SDS011;392;48.838;2.322;2022-09-24T14:15:52;11.30;;;10.40;;
819;SDS011;392;48.838;2.322;2022-09-24T14:18:22;12.73;;;11.57;;
819;SDS011;392;48.838;2.322;2022-09-24T14:20:52;12.70;;;11.50;;
819;SDS011;392;48.838;2.322;2022-09-24T14:23:23;11.47;;;10.57;;
819;SDS011;392;48.838;2.322;2022-09-24T14:25:56;13.17;;;11.83;;
819;SDS011;392;48.838;2.322;2022-09-24T14:28:26;11.50;;;10.50;;
819;SDS011;392;48.838;2.322;2022-09-24T14:30:57;10.43;;;9.53;;
819;SDS011;392;48.838;2.322;2022-09-24T14:33:27;11.00;;;10.10;;
819;SDS011;392;48.838;2.322;2022-09-24T14:35:57;11.17;;;10.20;;
819;SDS011;392;48.838;2.322;2022-09-24T14:38:26;11.17;;;10.17;;
819;SDS011;392;48.838;2.322;2022-09-24T14:40:58;10.77;;;9.83;;
819;SDS011;392;48.838;2.322;2022-09-24T14:43:32;11.53;;;10.50;;
819;SDS011;392;48.838;2.322;2022-09-24T14:46:04;10.83;;;9.97;;
819;SDS011;392;48.838;2.322;2022-09-24T14:48:39;10.40;;;9.60;;
819;SDS011;392;48.838;2.322;2022-09-24T14:51:19;11.23;;;10.33;;
819;SDS011;392;48.838;2.322;2022-09-24T14:53:56;10.57;;;9.67;;
819;SDS011;392;48.838;2.322;2022-09-24T14:56:26;12.00;;;10.90;;
819;SDS011;392;48.838;2.322;2022-09-24T14:58:57;13.97;;;12.87;;
819;SDS011;392;48.838;2.322;2022-09-24T15:01:28;10.87;;;9.87;;
819;SDS011;392;48.838;2.322;2022-09-24T15:03:58;11.37;;;10.17;;
819;SDS011;392;48.838;2.322;2022-09-24T15:06:29;10.57;;;9.63;;
819;SDS011;392;48.838;2.322;2022-09-24T15:08:58;13.30;;;12.20;;
819;SDS011;392;48.838;2.322;2022-09-24T15:11:28;10.47;;;9.57;;
819;SDS011;392;48.838;2.322;2022-09-24T15:14:02;10.30;;;9.40;;
819;SDS011;392;48.838;2.322;2022-09-24T15:16:43;12.60;;;11.30;;
819;SDS011;392;48.838;2.322;2022-09-24T15:19:16;12.47;;;11.40;;
819;SDS011;392;48.838;2.322;2022-09-24T15:21:45;11.30;;;10.30;;
819;SDS011;392;48.838;2.322;2022-09-24T15:24:14;10.43;;;9.53;;
819;SDS011;392;48.838;2.322;2022-09-24T15:26:42;15.23;;;14.03;;
819;SDS011;392;48.838;2.322;2022-09-24T15:29:18;10.10;;;9.20;;
819;SDS011;392;48.838;2.322;2022-09-24T15:31:48;15.80;;;14.10;;
819;SDS011;392;48.838;2.322;2022-09-24T15:34:16;17.43;;;15.70;;
819;SDS011;392;48.838;2.322;2022-09-24T15:36:44;14.60;;;13.20;;
819;SDS011;392;48.838;2.322;2022-09-24T15:39:12;14.77;;;13.27;;
819;SDS011;392;48.838;2.322;2022-09-24T15:41:40;18.07;;;16.00;;
819;SDS011;392;48.838;2.322;2022-09-24T15:44:07;20.40;;;18.57;;
819;SDS011;392;48.838;2.322;2022-09-24T15:46:45;11.60;;;10.50;;
819;SDS011;392;48.838;2.322;2022-09-24T15:49:15;16.30;;;14.70;;
819;SDS011;392;48.838;2.322;2022-09-24T15:51:46;13.43;;;12.03;;
819;SDS011;392;48.838;2.322;2022-09-24T15:54:14;14.30;;;13.00;;
819;SDS011;392;48.838;2.322;2022-09-24T15:56:41;11.40;;;10.30;;
819;SDS011;392;48.838;2.322;2022-09-24T15:59:10;11.93;;;10.80;;
819;SDS011;392;48.838;2.322;2022-09-24T16:01:39;12.63;;;11.43;;
819;SDS011;392;48.838;2.322;2022-09-24T16:04:08;19.07;;;17.40;;
819;SDS011;392;48.838;2.322;2022-09-24T16:06:36;11.23;;;10.30;;
819;SDS011;392;48.838;2.322;2022-09-24T16:09:04;9.97;;;9.00;;
819;SDS011;392;48.838;2.322;2022-09-24T16:11:31;13.47;;;12.10;;